sensor_id;sensor_type;location;lat;lon;timestamp;temperature;humidity
18091;DHT22;9172;49.948;9.208;2023-04-08T00:00:15;8.40;99.90
18091;DHT22;9172;49.948;9.208;2023-04-08T00:02:44;8.40;99.90
18091;DHT22;9172;49.948;9.208;2023-04-08T00:05:13;8.40;99.90
18091;DHT22;9172;49.948;9.208;2023-04-08T00:07:42;8.40;99.90
18091;DHT22;9172;49.948;9.208;2023-04-08T00:10:11;8.40;99.90
18091;DHT22;9172;49.948;9.208;2023-04-08T00:12:42;8.40;99.90
18091;DHT22;9172;49.948;9.208;2023-04-08T00:15:11;8.40;99.90
18091;DHT22;9172;49.948;9.208;2023-04-08T00:17:40;8.40;99.90
18091;DHT22;9172;49.948;9.208;2023-04-08T00:20:09;8.40;99.90
18091;DHT22;9172;49.948;9.208;2023-04-08T00:22:39;8.50;99.90
18091;DHT22;9172;49.948;9.208;2023-04-08T00:25:09;8.50;99.90
18091;DHT22;9172;49.948;9.208;2023-04-08T00:27:37;8.50;99.90
18091;DHT22;9172;49.948;9.208;2023-04-08T00:30:07;8.40;99.90
18091;DHT22;9172;49.948;9.208;2023-04-08T00:32:36;8.40;99.90
18091;DHT22;9172;49.948;9.208;2023-04-08T00:35:06;8.40;99.90
18091;DHT22;9172;49.948;9.208;2023-04-08T00:37:35;8.40;99.90
18091;DHT22;9172;49.948;9.208;2023-04-08T00:40:06;8.40;99.90
18091;DHT22;9172;49.948;9.208;2023-04-08T00:42:35;8.30;99.90
18091;DHT22;9172;49.948;9.208;2023-04-08T00:45:05;8.30;99.90
18091;DHT22;9172;49.948;9.208;2023-04-08T00:47:36;8.30;99.90
18091;DHT22;9172;49.948;9.208;2023-04-08T00:50:08;8.30;99.90
18091;DHT22;9172;49.948;9.208;2023-04-08T00:52:38;8.30;99.90
18091;DHT22;9172;49.948;9.208;2023-04-08T00:55:07;8.30;99.90
18091;DHT22;9172;49.948;9.208;2023-04-08T00:57:36;8.30;99.90
18091;DHT22;9172;49.948;9.208;2023-04-08T01:00:07;8.30;99.90
18091;DHT22;9172;49.948;9.208;2023-04-08T01:02:41;8.30;99.90
18091;DHT22;9172;49.948;9.208;2023-04-08T01:05:12;8.30;99.90
18091;DHT22;9172;49.948;9.208;2023-04-08T01:07:44;8.30;99.90
18091;DHT22;9172;49.948;9.208;2023-04-08T01:10:16;8.30;99.90
18091;DHT22;9172;49.948;9.208;2023-04-08T01:12:48;8.30;99.90
18091;DHT22;9172;49.948;9.208;2023-04-08T01:15:18;8.10;99.90
18091;DHT22;9172;49.948;9.208;2023-04-08T01:17:48;7.90;99.90
18091;DHT22;9172;49.948;9.208;2023-04-08T01:20:18;7.80;99.90
18091;DHT22;9172;49.948;9.208;2023-04-08T01:22:59;7.90;99.90
18091;DHT22;9172;49.948;9.208;2023-04-08T01:25:29;7.70;99.90
18091;DHT22;9172;49.948;9.208;2023-04-08T01:28:00;7.60;99.90
18091;DHT22;9172;49.948;9.208;2023-04-08T01:30:30;7.40;99.90
18091;DHT22;9172;49.948;9.208;2023-04-08T01:33:01;7.40;99.90
18091;DHT22;9172;49.948;9.208;2023-04-08T01:35:30;7.50;99.90
18091;DHT22;9172;49.948;9.208;2023-04-08T01:38:03;7.50;99.90
18091;DHT22;9172;49.948;9.208;2023-04-08T01:40:34;7.50;99.90
18091;DHT22;9172;49.948;9.208;2023-04-08T01:43:06;7.40;99.90
18091;DHT22;9172;49.948;9.208;2023-04-08T01:45:36;7.40;99.90
18091;DHT22;9172;49.948;9.208;2023-04-08T01:48:05;7.50;99.90
18091;DHT22;9172;49.948;9.208;2023-04-08T01:50:34;7.50;99.90
18091;DHT22;9172;49.948;9.208;2023-04-08T01:53:04;7.50;99.90
18091;DHT22;9172;49.948;9.208;2023-04-08T01:55:36;7.50;99.90
18091;DHT22;9172;49.948;9.208;2023-04-08T01:58:07;7.50;99.90
18091;DHT22;9172;49.948;9.208;2023-04-08T02:00:39;7.50;99.90
18091;DHT22;9172;49.948;9.208;2023-04-08T02:03:11;7.40;99.90
18091;DHT22;9172;49.948;9.208;2023-04-08T02:05:40;7.40;99.90
18091;DHT22;9172;49.948;9.208;2023-04-08T02:08:11;7.30;99.90
18091;DHT22;9172;49.948;9.208;2023-04-08T02:10:39;7.30;99.90
18091;DHT22;9172;49.948;9.208;2023-04-08T02:13:09;7.40;99.90
18091;DHT22;9172;49.948;9.208;2023-04-08T02:15:40;7.30;99.90
18091;DHT22;9172;49.948;9.208;2023-04-08T02:18:12;7.20;99.90
18091;DHT22;9172;49.948;9.208;2023-04-08T02:20:46;7.20;99.90
18091;DHT22;9172;49.948;9.208;2023-04-08T02:23:16;7.30;99.90
18091;DHT22;9172;49.948;9.208;2023-04-08T02:25:46;7.30;99.90
18091;DHT22;9172;49.948;9.208;2023-04-08T02:28:17;7.30;99.90
18091;DHT22;9172;49.948;9.208;2023-04-08T02:30:48;7.20;99.90
18091;DHT22;9172;49.948;9.208;2023-04-08T02:33:20;7.30;99.90
18091;DHT22;9172;49.948;9.208;2023-04-08T02:35:49;7.30;99.90
18091;DHT22;9172;49.948;9.208;2023-04-08T02:38:20;7.30;99.90
18091;DHT22;9172;49.948;9.208;2023-04-08T02:40:51;7.40;99.90
18091;DHT22;9172;49.948;9.208;2023-04-08T02:43:20;7.30;99.90
18091;DHT22;9172;49.948;9.208;2023-04-08T02:45:51;7.30;99.90
18091;DHT22;9172;49.948;9.208;2023-04-08T02:48:19;7.30;99.90
18091;DHT22;9172;49.948;9.208;2023-04-08T02:50:48;7.20;99.90
18091;DHT22;9172;49.948;9.208;2023-04-08T02:53:17;7.20;99.90
18091;DHT22;9172;49.948;9.208;2023-04-08T02:55:45;7.20;99.90
18091;DHT22;9172;49.948;9.208;2023-04-08T02:58:14;7.20;99.90
18091;DHT22;9172;49.948;9.208;2023-04-08T03:00:44;7.20;99.90
18091;DHT22;9172;49.948;9.208;2023-04-08T03:03:12;7.10;99.90
18091;DHT22;9172;49.948;9.208;2023-04-08T03:05:41;7.10;99.90
18091;DHT22;9172;49.948;9.208;2023-04-08T03:08:10;7.10;99.90
18091;DHT22;9172;49.948;9.208;2023-04-08T03:10:38;7.10;99.90
18091;DHT22;9172;49.948;9.208;2023-04-08T03:13:08;7.20;99.90
18091;DHT22;9172;49.948;9.208;2023-04-08T03:15:36;7.20;99.90
18091;DHT22;9172;49.948;9.208;2023-04-08T03:18:05;7.30;99.90
18091;DHT22;9172;49.948;9.208;2023-04-08T03:20:34;7.20;99.90
18091;DHT22;9172;49.948;9.208;2023-04-08T03:23:03;7.20;99.90
18091;DHT22;9172;49.948;9.208;2023-04-08T03:25:33;7.20;99.90
18091;DHT22;9172;49.948;9.208;2023-04-08T03:28:01;7.20;99.90
18091;DHT22;9172;49.948;9.208;2023-04-08T03:30:30;7.20;99.90
18091;DHT22;9172;49.948;9.208;2023-04-08T03:32:59;7.10;99.90
18091;DHT22;9172;49.948;9.208;2023-04-08T03:35:29;7.10;99.90
18091;DHT22;9172;49.948;9.208;2023-04-08T03:37:59;6.90;99.90
18091;DHT22;9172;49.948;9.208;2023-04-08T03:40:28;6.80;99.90
18091;DHT22;9172;49.948;9.208;2023-04-08T03:42:57;6.70;99.90
18091;DHT22;9172;49.948;9.208;2023-04-08T03:45:26;6.80;99.90
18091;DHT22;9172;49.948;9.208;2023-04-08T03:47:54;6.80;99.90
18091;DHT22;9172;49.948;9.208;2023-04-08T03:50:23;6.80;99.90
18091;DHT22;9172;49.948;9.208;2023-04-08T03:52:52;6.90;99.90
18091;DHT22;9172;49.948;9.208;2023-04-08T03:55:20;6.90;99.90
18091;DHT22;9172;49.948;9.208;2023-04-08T03:57:49;6.90;99.90
18091;DHT22;9172;49.948;9.208;2023-04-08T04:00:19;6.80;99.90
18091;DHT22;9172;49.948;9.208;2023-04-08T04:02:47;6.80;99.90
18091;DHT22;9172;49.948;9.208;2023-04-08T04:05:16;6.60;99.90
18091;DHT22;9172;49.948;9.208;2023-04-08T04:07:44;6.60;99.90
18091;DHT22;9172;49.948;9.208;2023-04-08T04:10:13;6.50;99.90
18091;DHT22;9172;49.948;9.208;2023-04-08T04:12:43;6.50;99.90
18091;DHT22;9172;49.948;9.208;2023-04-08T04:15:12;6.60;99.90
18091;DHT22;9172;49.948;9.208;2023-04-08T04:17:43;6.60;99.90
18091;DHT22;9172;49.948;9.208;2023-04-08T04:20:12;6.70;99.90
18091;DHT22;9172;49.948;9.208;2023-04-08T04:22:43;6.70;99.90
18091;DHT22;9172;49.948;9.208;2023-04-08T04:25:11;6.60;99.90
18091;DHT22;9172;49.948;9.208;2023-04-08T04:27:40;6.70;99.90
18091;DHT22;9172;49.948;9.208;2023-04-08T04:30:09;6.70;99.90
18091;DHT22;9172;49.948;9.208;2023-04-08T04:32:40;6.70;99.90
18091;DHT22;9172;49.948;9.208;2023-04-08T04:35:09;6.70;99.90
18091;DHT22;9172;49.948;9.208;2023-04-08T04:37:39;6.70;99.90
18091;DHT22;9172;49.948;9.208;2023-04-08T04:40:08;6.70;99.90
18091;DHT22;9172;49.948;9.208;2023-04-08T04:42:37;6.70;99.90
18091;DHT22;9172;49.948;9.208;2023-04-08T04:45:08;6.70;99.90
18091;DHT22;9172;49.948;9.208;2023-04-08T04:47:37;6.70;99.90
18091;DHT22;9172;49.948;9.208;2023-04-08T04:50:07;6.70;99.90
18091;DHT22;9172;49.948;9.208;2023-04-08T04:52:37;6.70;99.90
18091;DHT22;9172;49.948;9.208;2023-04-08T04:55:07;6.70;99.90
18091;DHT22;9172;49.948;9.208;2023-04-08T04:57:36;6.70;99.90
18091;DHT22;9172;49.948;9.208;2023-04-08T05:00:07;6.60;99.90
18091;DHT22;9172;49.948;9.208;2023-04-08T05:02:36;6.50;99.90
18091;DHT22;9172;49.948;9.208;2023-04-08T05:05:06;6.40;99.90
18091;DHT22;9172;49.948;9.208;2023-04-08T05:07:36;6.50;99.90
18091;DHT22;9172;49.948;9.208;2023-04-08T05:10:06;6.30;99.90
18091;DHT22;9172;49.948;9.208;2023-04-08T05:12:35;6.10;99.90
18091;DHT22;9172;49.948;9.208;2023-04-08T05:15:07;6.00;99.90
18091;DHT22;9172;49.948;9.208;2023-04-08T05:17:35;5.90;99.90
18091;DHT22;9172;49.948;9.208;2023-04-08T05:20:06;5.80;99.90
18091;DHT22;9172;49.948;9.208;2023-04-08T05:22:34;5.70;99.90
18091;DHT22;9172;49.948;9.208;2023-04-08T05:25:05;5.60;99.90
18091;DHT22;9172;49.948;9.208;2023-04-08T05:27:34;5.50;99.90
18091;DHT22;9172;49.948;9.208;2023-04-08T05:30:04;5.50;99.90
18091;DHT22;9172;49.948;9.208;2023-04-08T05:32:33;5.40;99.90
18091;DHT22;9172;49.948;9.208;2023-04-08T05:35:03;5.40;99.90
18091;DHT22;9172;49.948;9.208;2023-04-08T05:37:32;5.30;99.90
18091;DHT22;9172;49.948;9.208;2023-04-08T05:40:01;5.20;99.90
18091;DHT22;9172;49.948;9.208;2023-04-08T05:42:29;5.20;99.90
18091;DHT22;9172;49.948;9.208;2023-04-08T05:44:59;5.30;99.90
18091;DHT22;9172;49.948;9.208;2023-04-08T05:47:28;5.30;99.90
18091;DHT22;9172;49.948;9.208;2023-04-08T05:49:58;5.30;99.90
18091;DHT22;9172;49.948;9.208;2023-04-08T05:52:26;5.40;99.90
18091;DHT22;9172;49.948;9.208;2023-04-08T05:54:55;5.60;99.90
18091;DHT22;9172;49.948;9.208;2023-04-08T05:57:24;5.70;99.90
18091;DHT22;9172;49.948;9.208;2023-04-08T05:59:53;5.90;99.90
18091;DHT22;9172;49.948;9.208;2023-04-08T06:02:22;5.90;99.90
18091;DHT22;9172;49.948;9.208;2023-04-08T06:04:51;6.00;99.90
18091;DHT22;9172;49.948;9.208;2023-04-08T06:07:20;6.00;99.90
18091;DHT22;9172;49.948;9.208;2023-04-08T06:09:50;5.90;99.90
18091;DHT22;9172;49.948;9.208;2023-04-08T06:12:18;5.90;99.90
18091;DHT22;9172;49.948;9.208;2023-04-08T06:14:47;5.90;99.90
18091;DHT22;9172;49.948;9.208;2023-04-08T06:17:17;5.90;99.90
18091;DHT22;9172;49.948;9.208;2023-04-08T06:19:46;5.90;99.90
18091;DHT22;9172;49.948;9.208;2023-04-08T06:22:15;5.90;99.90
18091;DHT22;9172;49.948;9.208;2023-04-08T06:24:44;5.90;99.90
18091;DHT22;9172;49.948;9.208;2023-04-08T06:27:13;5.90;99.90
18091;DHT22;9172;49.948;9.208;2023-04-08T06:29:43;6.00;99.90
18091;DHT22;9172;49.948;9.208;2023-04-08T06:32:12;5.90;99.90
18091;DHT22;9172;49.948;9.208;2023-04-08T06:34:40;5.80;99.90
18091;DHT22;9172;49.948;9.208;2023-04-08T06:37:09;5.80;99.90
18091;DHT22;9172;49.948;9.208;2023-04-08T06:39:37;5.80;99.90
18091;DHT22;9172;49.948;9.208;2023-04-08T06:42:06;5.70;99.90
18091;DHT22;9172;49.948;9.208;2023-04-08T06:44:34;5.80;99.90
18091;DHT22;9172;49.948;9.208;2023-04-08T06:47:03;5.90;99.90
18091;DHT22;9172;49.948;9.208;2023-04-08T06:49:31;6.00;99.90
18091;DHT22;9172;49.948;9.208;2023-04-08T06:52:00;6.00;99.90
18091;DHT22;9172;49.948;9.208;2023-04-08T06:54:29;6.10;99.90
18091;DHT22;9172;49.948;9.208;2023-04-08T06:56:57;6.20;99.90
18091;DHT22;9172;49.948;9.208;2023-04-08T06:59:26;6.10;99.90
18091;DHT22;9172;49.948;9.208;2023-04-08T07:01:55;6.20;99.90
18091;DHT22;9172;49.948;9.208;2023-04-08T07:04:25;6.20;99.90
18091;DHT22;9172;49.948;9.208;2023-04-08T07:06:55;6.30;99.90
18091;DHT22;9172;49.948;9.208;2023-04-08T07:09:24;6.50;99.90
18091;DHT22;9172;49.948;9.208;2023-04-08T07:11:53;6.50;99.90
18091;DHT22;9172;49.948;9.208;2023-04-08T07:14:22;6.50;99.90
18091;DHT22;9172;49.948;9.208;2023-04-08T07:16:52;6.50;99.90
18091;DHT22;9172;49.948;9.208;2023-04-08T07:19:21;6.40;99.90
18091;DHT22;9172;49.948;9.208;2023-04-08T07:21:51;6.40;99.90
18091;DHT22;9172;49.948;9.208;2023-04-08T07:24:20;6.40;99.90
18091;DHT22;9172;49.948;9.208;2023-04-08T07:26:48;6.40;99.90
18091;DHT22;9172;49.948;9.208;2023-04-08T07:29:17;6.40;99.90
18091;DHT22;9172;49.948;9.208;2023-04-08T07:31:47;6.40;99.90
18091;DHT22;9172;49.948;9.208;2023-04-08T07:34:17;6.50;99.90
18091;DHT22;9172;49.948;9.208;2023-04-08T07:36:46;6.50;99.90
18091;DHT22;9172;49.948;9.208;2023-04-08T07:39:14;6.50;99.90
18091;DHT22;9172;49.948;9.208;2023-04-08T07:41:43;6.60;99.90
18091;DHT22;9172;49.948;9.208;2023-04-08T07:44:11;6.50;99.90
18091;DHT22;9172;49.948;9.208;2023-04-08T07:46:42;6.50;99.90
18091;DHT22;9172;49.948;9.208;2023-04-08T07:49:12;6.60;99.90
18091;DHT22;9172;49.948;9.208;2023-04-08T07:51:42;6.60;99.90
18091;DHT22;9172;49.948;9.208;2023-04-08T07:54:11;6.50;99.90
18091;DHT22;9172;49.948;9.208;2023-04-08T07:56:41;6.50;99.90
18091;DHT22;9172;49.948;9.208;2023-04-08T07:59:11;6.50;99.90
18091;DHT22;9172;49.948;9.208;2023-04-08T08:01:40;6.60;99.90
18091;DHT22;9172;49.948;9.208;2023-04-08T08:04:09;6.70;99.90
18091;DHT22;9172;49.948;9.208;2023-04-08T08:06:38;6.80;99.90
18091;DHT22;9172;49.948;9.208;2023-04-08T08:09:07;6.80;99.90
18091;DHT22;9172;49.948;9.208;2023-04-08T08:11:36;6.80;99.90
18091;DHT22;9172;49.948;9.208;2023-04-08T08:14:06;6.80;99.90
18091;DHT22;9172;49.948;9.208;2023-04-08T08:16:35;6.80;99.90
18091;DHT22;9172;49.948;9.208;2023-04-08T08:19:06;6.80;99.90
18091;DHT22;9172;49.948;9.208;2023-04-08T08:21:36;6.80;99.90
18091;DHT22;9172;49.948;9.208;2023-04-08T08:24:06;6.90;99.90
18091;DHT22;9172;49.948;9.208;2023-04-08T08:26:35;6.90;99.90
18091;DHT22;9172;49.948;9.208;2023-04-08T08:29:04;6.90;99.90
18091;DHT22;9172;49.948;9.208;2023-04-08T08:31:34;6.80;99.90
18091;DHT22;9172;49.948;9.208;2023-04-08T08:34:03;6.70;99.90
18091;DHT22;9172;49.948;9.208;2023-04-08T08:36:33;6.80;99.90
18091;DHT22;9172;49.948;9.208;2023-04-08T08:39:02;6.80;99.90
18091;DHT22;9172;49.948;9.208;2023-04-08T08:41:33;6.80;99.90
18091;DHT22;9172;49.948;9.208;2023-04-08T08:44:04;6.80;99.90
18091;DHT22;9172;49.948;9.208;2023-04-08T08:46:35;6.70;99.90
18091;DHT22;9172;49.948;9.208;2023-04-08T08:49:04;6.70;99.90
18091;DHT22;9172;49.948;9.208;2023-04-08T08:51:34;6.70;99.90
18091;DHT22;9172;49.948;9.208;2023-04-08T08:54:03;6.60;99.90
18091;DHT22;9172;49.948;9.208;2023-04-08T08:56:34;6.60;99.90
18091;DHT22;9172;49.948;9.208;2023-04-08T08:59:03;6.60;99.90
18091;DHT22;9172;49.948;9.208;2023-04-08T09:01:33;6.60;99.90
18091;DHT22;9172;49.948;9.208;2023-04-08T09:04:15;6.70;99.90
18091;DHT22;9172;49.948;9.208;2023-04-08T09:06:45;6.70;99.90
18091;DHT22;9172;49.948;9.208;2023-04-08T09:09:14;6.70;99.90
18091;DHT22;9172;49.948;9.208;2023-04-08T09:11:44;6.70;99.90
18091;DHT22;9172;49.948;9.208;2023-04-08T09:14:20;6.80;99.90
18091;DHT22;9172;49.948;9.208;2023-04-08T09:16:49;6.80;99.90
18091;DHT22;9172;49.948;9.208;2023-04-08T09:19:18;6.90;99.90
18091;DHT22;9172;49.948;9.208;2023-04-08T09:22:04;6.90;99.90
18091;DHT22;9172;49.948;9.208;2023-04-08T09:24:35;7.00;99.90
18091;DHT22;9172;49.948;9.208;2023-04-08T09:27:04;7.10;99.90
18091;DHT22;9172;49.948;9.208;2023-04-08T09:29:33;7.20;99.90
18091;DHT22;9172;49.948;9.208;2023-04-08T09:32:02;7.30;99.90
18091;DHT22;9172;49.948;9.208;2023-04-08T09:34:31;7.30;99.90
18091;DHT22;9172;49.948;9.208;2023-04-08T09:37:02;7.40;99.90
18091;DHT22;9172;49.948;9.208;2023-04-08T09:39:30;7.30;99.90
18091;DHT22;9172;49.948;9.208;2023-04-08T09:42:00;7.40;99.90
18091;DHT22;9172;49.948;9.208;2023-04-08T09:44:33;7.40;99.90
18091;DHT22;9172;49.948;9.208;2023-04-08T09:47:07;7.40;99.90
18091;DHT22;9172;49.948;9.208;2023-04-08T09:49:39;7.40;99.90
18091;DHT22;9172;49.948;9.208;2023-04-08T09:52:12;7.40;99.90
18091;DHT22;9172;49.948;9.208;2023-04-08T09:54:47;7.50;99.90
18091;DHT22;9172;49.948;9.208;2023-04-08T09:57:16;7.40;99.90
18091;DHT22;9172;49.948;9.208;2023-04-08T09:59:48;7.50;99.90
18091;DHT22;9172;49.948;9.208;2023-04-08T10:02:23;7.50;99.90
18091;DHT22;9172;49.948;9.208;2023-04-08T10:05:10;7.60;99.90
18091;DHT22;9172;49.948;9.208;2023-04-08T10:07:41;7.80;99.90
18091;DHT22;9172;49.948;9.208;2023-04-08T10:10:10;8.10;99.90
18091;DHT22;9172;49.948;9.208;2023-04-08T10:12:39;8.20;99.90
18091;DHT22;9172;49.948;9.208;2023-04-08T10:15:26;8.30;99.90
18091;DHT22;9172;49.948;9.208;2023-04-08T10:17:56;8.40;99.90
18091;DHT22;9172;49.948;9.208;2023-04-08T10:20:45;8.40;99.90
18091;DHT22;9172;49.948;9.208;2023-04-08T10:23:14;8.60;99.90
18091;DHT22;9172;49.948;9.208;2023-04-08T10:25:44;8.70;99.90
18091;DHT22;9172;49.948;9.208;2023-04-08T10:28:26;8.70;99.90
18091;DHT22;9172;49.948;9.208;2023-04-08T10:30:56;8.80;99.90
18091;DHT22;9172;49.948;9.208;2023-04-08T10:33:30;8.90;99.90
18091;DHT22;9172;49.948;9.208;2023-04-08T10:36:07;8.90;99.90
18091;DHT22;9172;49.948;9.208;2023-04-08T10:38:31;8.90;99.90
18091;DHT22;9172;49.948;9.208;2023-04-08T10:41:00;8.90;99.90
18091;DHT22;9172;49.948;9.208;2023-04-08T10:43:33;9.00;99.90
18091;DHT22;9172;49.948;9.208;2023-04-08T10:46:03;9.10;99.90
18091;DHT22;9172;49.948;9.208;2023-04-08T10:48:31;9.10;99.90
18091;DHT22;9172;49.948;9.208;2023-04-08T10:51:08;9.20;99.90
18091;DHT22;9172;49.948;9.208;2023-04-08T10:53:37;9.10;99.90
18091;DHT22;9172;49.948;9.208;2023-04-08T10:56:07;9.10;99.90
18091;DHT22;9172;49.948;9.208;2023-04-08T10:58:47;9.20;99.90
18091;DHT22;9172;49.948;9.208;2023-04-08T11:01:16;9.30;99.90
18091;DHT22;9172;49.948;9.208;2023-04-08T11:03:45;9.40;99.90
18091;DHT22;9172;49.948;9.208;2023-04-08T11:06:15;9.60;99.90
18091;DHT22;9172;49.948;9.208;2023-04-08T11:08:45;9.70;99.90
18091;DHT22;9172;49.948;9.208;2023-04-08T11:11:14;9.80;99.90
18091;DHT22;9172;49.948;9.208;2023-04-08T11:13:45;9.70;99.90
18091;DHT22;9172;49.948;9.208;2023-04-08T11:16:15;9.70;99.90
18091;DHT22;9172;49.948;9.208;2023-04-08T11:18:45;9.70;99.90
18091;DHT22;9172;49.948;9.208;2023-04-08T11:21:15;9.80;99.90
18091;DHT22;9172;49.948;9.208;2023-04-08T11:23:44;9.70;99.90
18091;DHT22;9172;49.948;9.208;2023-04-08T11:26:14;9.80;99.90
18091;DHT22;9172;49.948;9.208;2023-04-08T11:28:43;9.90;99.90
18091;DHT22;9172;49.948;9.208;2023-04-08T11:31:12;9.70;99.90
18091;DHT22;9172;49.948;9.208;2023-04-08T11:33:47;9.70;99.90
18091;DHT22;9172;49.948;9.208;2023-04-08T11:36:18;9.80;99.90
18091;DHT22;9172;49.948;9.208;2023-04-08T11:38:48;10.00;99.90
18091;DHT22;9172;49.948;9.208;2023-04-08T11:41:17;10.10;99.90
18091;DHT22;9172;49.948;9.208;2023-04-08T11:43:52;10.10;99.90
18091;DHT22;9172;49.948;9.208;2023-04-08T11:46:21;10.30;99.90
18091;DHT22;9172;49.948;9.208;2023-04-08T11:49:03;10.50;99.90
18091;DHT22;9172;49.948;9.208;2023-04-08T11:51:33;10.60;99.90
18091;DHT22;9172;49.948;9.208;2023-04-08T11:54:13;10.80;99.90
18091;DHT22;9172;49.948;9.208;2023-04-08T11:56:45;10.90;99.90
18091;DHT22;9172;49.948;9.208;2023-04-08T11:59:13;10.90;99.90
18091;DHT22;9172;49.948;9.208;2023-04-08T12:01:42;10.80;99.90
18091;DHT22;9172;49.948;9.208;2023-04-08T12:04:12;10.80;99.90
18091;DHT22;9172;49.948;9.208;2023-04-08T12:06:40;10.70;99.90
18091;DHT22;9172;49.948;9.208;2023-04-08T12:09:11;10.80;99.90
18091;DHT22;9172;49.948;9.208;2023-04-08T12:11:41;10.90;99.90
18091;DHT22;9172;49.948;9.208;2023-04-08T12:14:09;11.00;99.90
18091;DHT22;9172;49.948;9.208;2023-04-08T12:16:39;11.00;99.90
18091;DHT22;9172;49.948;9.208;2023-04-08T12:19:07;10.90;99.90
18091;DHT22;9172;49.948;9.208;2023-04-08T12:21:37;10.90;99.90
18091;DHT22;9172;49.948;9.208;2023-04-08T12:24:06;11.00;99.90
18091;DHT22;9172;49.948;9.208;2023-04-08T12:26:34;11.10;99.90
18091;DHT22;9172;49.948;9.208;2023-04-08T12:29:04;11.10;99.90
18091;DHT22;9172;49.948;9.208;2023-04-08T12:31:33;11.10;99.90
18091;DHT22;9172;49.948;9.208;2023-04-08T12:34:03;11.10;99.90
18091;DHT22;9172;49.948;9.208;2023-04-08T12:36:34;11.10;99.90
18091;DHT22;9172;49.948;9.208;2023-04-08T12:39:04;11.00;99.90
18091;DHT22;9172;49.948;9.208;2023-04-08T12:41:33;11.00;99.90
18091;DHT22;9172;49.948;9.208;2023-04-08T12:44:01;10.90;99.90
18091;DHT22;9172;49.948;9.208;2023-04-08T12:46:30;10.90;99.90
18091;DHT22;9172;49.948;9.208;2023-04-08T12:48:58;10.80;99.90
18091;DHT22;9172;49.948;9.208;2023-04-08T12:51:28;10.80;99.90
18091;DHT22;9172;49.948;9.208;2023-04-08T12:53:57;10.80;99.90
18091;DHT22;9172;49.948;9.208;2023-04-08T12:56:27;10.80;99.90
18091;DHT22;9172;49.948;9.208;2023-04-08T12:58:56;10.80;99.90
18091;DHT22;9172;49.948;9.208;2023-04-08T13:01:25;10.80;99.90
18091;DHT22;9172;49.948;9.208;2023-04-08T13:03:53;10.80;99.90
18091;DHT22;9172;49.948;9.208;2023-04-08T13:06:23;10.80;99.90
18091;DHT22;9172;49.948;9.208;2023-04-08T13:08:52;10.80;99.90
18091;DHT22;9172;49.948;9.208;2023-04-08T13:11:21;10.80;99.90
18091;DHT22;9172;49.948;9.208;2023-04-08T13:13:50;10.80;99.90
18091;DHT22;9172;49.948;9.208;2023-04-08T13:16:19;10.80;99.90
18091;DHT22;9172;49.948;9.208;2023-04-08T13:18:49;10.70;99.90
18091;DHT22;9172;49.948;9.208;2023-04-08T13:21:18;10.80;99.90
18091;DHT22;9172;49.948;9.208;2023-04-08T13:23:48;10.80;99.90
18091;DHT22;9172;49.948;9.208;2023-04-08T13:26:17;10.90;99.90
18091;DHT22;9172;49.948;9.208;2023-04-08T13:28:45;10.90;99.90
18091;DHT22;9172;49.948;9.208;2023-04-08T13:31:16;11.00;99.90
18091;DHT22;9172;49.948;9.208;2023-04-08T13:33:46;11.00;99.90
18091;DHT22;9172;49.948;9.208;2023-04-08T13:36:14;11.00;99.90
18091;DHT22;9172;49.948;9.208;2023-04-08T13:38:43;11.00;99.90
18091;DHT22;9172;49.948;9.208;2023-04-08T13:41:12;11.00;99.90
18091;DHT22;9172;49.948;9.208;2023-04-08T13:43:41;11.00;99.90
18091;DHT22;9172;49.948;9.208;2023-04-08T13:46:10;10.90;99.90
18091;DHT22;9172;49.948;9.208;2023-04-08T13:48:40;10.90;99.90
18091;DHT22;9172;49.948;9.208;2023-04-08T13:51:10;10.80;99.90
18091;DHT22;9172;49.948;9.208;2023-04-08T13:53:39;10.60;99.90
18091;DHT22;9172;49.948;9.208;2023-04-08T13:56:08;10.60;99.90
18091;DHT22;9172;49.948;9.208;2023-04-08T13:58:37;10.60;99.90
18091;DHT22;9172;49.948;9.208;2023-04-08T14:01:06;10.70;99.90
18091;DHT22;9172;49.948;9.208;2023-04-08T14:03:35;10.60;99.90
18091;DHT22;9172;49.948;9.208;2023-04-08T14:06:04;10.60;99.90
18091;DHT22;9172;49.948;9.208;2023-04-08T14:08:34;10.60;99.90
18091;DHT22;9172;49.948;9.208;2023-04-08T14:11:02;10.70;99.90
18091;DHT22;9172;49.948;9.208;2023-04-08T14:13:31;10.70;99.90
18091;DHT22;9172;49.948;9.208;2023-04-08T14:16:00;10.70;99.90
18091;DHT22;9172;49.948;9.208;2023-04-08T14:18:30;10.80;99.90
18091;DHT22;9172;49.948;9.208;2023-04-08T14:20:59;10.90;99.90
18091;DHT22;9172;49.948;9.208;2023-04-08T14:23:27;10.90;99.90
18091;DHT22;9172;49.948;9.208;2023-04-08T14:25:57;10.90;99.90
18091;DHT22;9172;49.948;9.208;2023-04-08T14:28:29;10.90;99.90
18091;DHT22;9172;49.948;9.208;2023-04-08T14:30:57;10.90;99.90
18091;DHT22;9172;49.948;9.208;2023-04-08T14:33:26;10.90;99.90
18091;DHT22;9172;49.948;9.208;2023-04-08T14:35:55;10.90;99.90
18091;DHT22;9172;49.948;9.208;2023-04-08T14:38:25;10.90;99.90
18091;DHT22;9172;49.948;9.208;2023-04-08T14:40:54;10.90;99.90
18091;DHT22;9172;49.948;9.208;2023-04-08T14:43:23;10.90;99.90
18091;DHT22;9172;49.948;9.208;2023-04-08T14:45:53;11.00;99.90
18091;DHT22;9172;49.948;9.208;2023-04-08T14:48:22;10.90;99.90
18091;DHT22;9172;49.948;9.208;2023-04-08T14:50:52;10.90;99.90
18091;DHT22;9172;49.948;9.208;2023-04-08T14:53:22;10.90;99.90
18091;DHT22;9172;49.948;9.208;2023-04-08T14:55:50;10.90;99.90
18091;DHT22;9172;49.948;9.208;2023-04-08T14:58:19;11.00;99.90
18091;DHT22;9172;49.948;9.208;2023-04-08T15:00:48;11.00;99.90
18091;DHT22;9172;49.948;9.208;2023-04-08T15:03:17;11.10;99.90
18091;DHT22;9172;49.948;9.208;2023-04-08T15:05:47;11.10;99.90
18091;DHT22;9172;49.948;9.208;2023-04-08T15:08:16;11.00;99.90
18091;DHT22;9172;49.948;9.208;2023-04-08T15:10:45;11.00;99.90
18091;DHT22;9172;49.948;9.208;2023-04-08T15:13:13;11.00;99.90
18091;DHT22;9172;49.948;9.208;2023-04-08T15:15:43;11.00;99.90
18091;DHT22;9172;49.948;9.208;2023-04-08T15:18:12;11.00;99.90
18091;DHT22;9172;49.948;9.208;2023-04-08T15:20:42;10.90;99.90
18091;DHT22;9172;49.948;9.208;2023-04-08T15:23:10;10.90;99.90
18091;DHT22;9172;49.948;9.208;2023-04-08T15:25:39;10.90;99.90
18091;DHT22;9172;49.948;9.208;2023-04-08T15:28:08;10.90;99.90
18091;DHT22;9172;49.948;9.208;2023-04-08T15:30:37;11.00;99.90
18091;DHT22;9172;49.948;9.208;2023-04-08T15:33:06;11.00;99.90
18091;DHT22;9172;49.948;9.208;2023-04-08T15:35:34;11.00;99.90
18091;DHT22;9172;49.948;9.208;2023-04-08T15:38:04;11.00;99.90
18091;DHT22;9172;49.948;9.208;2023-04-08T15:40:34;10.90;99.90
18091;DHT22;9172;49.948;9.208;2023-04-08T15:43:03;10.90;99.90
18091;DHT22;9172;49.948;9.208;2023-04-08T15:45:33;10.80;99.90
18091;DHT22;9172;49.948;9.208;2023-04-08T15:48:02;10.90;99.90
18091;DHT22;9172;49.948;9.208;2023-04-08T15:50:33;10.80;99.90
18091;DHT22;9172;49.948;9.208;2023-04-08T15:53:03;10.80;99.90
18091;DHT22;9172;49.948;9.208;2023-04-08T15:55:36;10.90;99.90
18091;DHT22;9172;49.948;9.208;2023-04-08T15:58:06;10.90;99.90
18091;DHT22;9172;49.948;9.208;2023-04-08T16:00:36;10.90;99.90
18091;DHT22;9172;49.948;9.208;2023-04-08T16:03:04;10.90;99.90
18091;DHT22;9172;49.948;9.208;2023-04-08T16:05:34;10.90;99.90
18091;DHT22;9172;49.948;9.208;2023-04-08T16:08:05;10.90;99.90
18091;DHT22;9172;49.948;9.208;2023-04-08T16:10:34;10.90;99.90
18091;DHT22;9172;49.948;9.208;2023-04-08T16:13:03;10.90;99.90